<?xml version='1.0' encoding='UTF-8'?><gpx version="1.1" creator="JPX - https://github.com/jenetics/jpx" xmlns="http://www.topografix.com/GPX/1/1"><trk><trkseg><trkpt lat="46.3930898" lon="11.1008282"><ele>867.0</ele><time>2026-03-24T15:49:51.866Z</time></trkpt><trkpt lat="46.3931281" lon="11.1009013"><ele>867.0</ele><time>2026-03-24T15:49:57.863Z</time></trkpt><trkpt lat="46.3931759" lon="11.1010173"><ele>867.0</ele><time>2026-03-24T15:50:45.222Z</time></trkpt><trkpt lat="46.3932804" lon="11.1010678"><ele>867.0</ele><time>2026-03-24T15:50:47.212Z</time></trkpt><trkpt lat="46.3933801" lon="11.1011076"><ele>867.0</ele><time>2026-03-24T15:50:49.223Z</time></trkpt><trkpt lat="46.3934675" lon="11.101142"><ele>867.0</ele><time>2026-03-24T15:50:51.218Z</time></trkpt><trkpt lat="46.3935257" lon="11.1012267"><ele>867.0</ele><time>2026-03-24T15:50:55.219Z</time></trkpt><trkpt lat="46.3935818" lon="11.1013117"><ele>867.0</ele><time>2026-03-24T15:50:57.221Z</time></trkpt><trkpt lat="46.3936034" lon="11.1014318"><ele>867.0</ele><time>2026-03-24T15:51:01.123Z</time></trkpt><trkpt lat="46.3936476" lon="11.1015172"><ele>867.0</ele><time>2026-03-24T15:51:03.221Z</time></trkpt><trkpt lat="46.3937115" lon="11.1015672"><ele>867.0</ele><time>2026-03-24T15:51:05.222Z</time></trkpt><trkpt lat="46.3937835" lon="11.1015892"><ele>867.0</ele><time>2026-03-24T15:51:07.219Z</time></trkpt><trkpt lat="46.3938523" lon="11.1016627"><ele>867.0</ele><time>2026-03-24T15:51:10.221Z</time></trkpt><trkpt lat="46.3939178" lon="11.1016721"><ele>867.0</ele><time>2026-03-24T15:51:30.225Z</time></trkpt><trkpt lat="46.3939259" lon="11.1015652"><ele>867.0</ele><time>2026-03-24T15:51:32.225Z</time></trkpt><trkpt lat="46.3939432" lon="11.101407"><ele>867.0</ele><time>2026-03-24T15:51:34.205Z</time></trkpt><trkpt lat="46.3939723" lon="11.1012479"><ele>867.0</ele><time>2026-03-24T15:51:36.21Z</time></trkpt><trkpt lat="46.3939842" lon="11.1010763"><ele>866.8333333333334</ele><time>2026-03-24T15:51:38.21Z</time></trkpt><trkpt lat="46.3939812" lon="11.1009768"><ele>866.6666666666667</ele><time>2026-03-24T15:51:39.21Z</time></trkpt><trkpt lat="46.3939551" lon="11.100838"><ele>866.5</ele><time>2026-03-24T15:51:41.222Z</time></trkpt><trkpt lat="46.3939475" lon="11.1007136"><ele>866.3333333333334</ele><time>2026-03-24T15:51:43.22Z</time></trkpt><trkpt lat="46.3939557" lon="11.1005816"><ele>866.1666666666667</ele><time>2026-03-24T15:51:45.231Z</time></trkpt><trkpt lat="46.39397" lon="11.1004782"><ele>866.0</ele><time>2026-03-24T15:51:47.232Z</time></trkpt><trkpt lat="46.3939985" lon="11.1003912"><ele>865.0000000000001</ele><time>2026-03-24T15:51:49.235Z</time></trkpt><trkpt lat="46.3940505" lon="11.1003142"><ele>864.0</ele><time>2026-03-24T15:51:51.238Z</time></trkpt><trkpt lat="46.394094" lon="11.1002181"><ele>863.0</ele><time>2026-03-24T15:51:53.241Z</time></trkpt><trkpt lat="46.3941507" lon="11.100131"><ele>862.0</ele><time>2026-03-24T15:51:55.246Z</time></trkpt><trkpt lat="46.3942172" lon="11.1000528"><ele>861.0000000000001</ele><time>2026-03-24T15:51:57.241Z</time></trkpt><trkpt lat="46.3942765" lon="11.0999398"><ele>860.0</ele><time>2026-03-24T15:51:59.246Z</time></trkpt><trkpt lat="46.3943654" lon="11.0998115"><ele>857.8333333333334</ele><time>2026-03-24T15:52:01.239Z</time></trkpt><trkpt lat="46.3944633" lon="11.09973"><ele>855.6666666666667</ele><time>2026-03-24T15:52:03.232Z</time></trkpt><trkpt lat="46.3945236" lon="11.0996864"><ele>853.5</ele><time>2026-03-24T15:52:04.238Z</time></trkpt><trkpt lat="46.3946086" lon="11.0996475"><ele>851.3333333333333</ele><time>2026-03-24T15:52:06.24Z</time></trkpt><trkpt lat="46.3947069" lon="11.099641"><ele>849.1666666666666</ele><time>2026-03-24T15:52:08.236Z</time></trkpt><trkpt lat="46.3947708" lon="11.0996562"><ele>847.0</ele><time>2026-03-24T15:52:09.237Z</time></trkpt><trkpt lat="46.3948352" lon="11.0996641"><ele>847.0</ele><time>2026-03-24T15:52:10.238Z</time></trkpt><trkpt lat="46.3949344" lon="11.0996619"><ele>847.0</ele><time>2026-03-24T15:52:12.236Z</time></trkpt><trkpt lat="46.3950289" lon="11.0996593"><ele>847.0</ele><time>2026-03-24T15:52:14.234Z</time></trkpt><trkpt lat="46.3951342" lon="11.0996818"><ele>847.0</ele><time>2026-03-24T15:52:16.242Z</time></trkpt><trkpt lat="46.3952335" lon="11.0996754"><ele>847.0</ele><time>2026-03-24T15:52:18.235Z</time></trkpt><trkpt lat="46.3953534" lon="11.0996802"><ele>847.0</ele><time>2026-03-24T15:52:20.242Z</time></trkpt><trkpt lat="46.3954554" lon="11.0996534"><ele>847.0</ele><time>2026-03-24T15:52:22.237Z</time></trkpt><trkpt lat="46.395542" lon="11.0996223"><ele>847.0</ele><time>2026-03-24T15:52:24.229Z</time></trkpt><trkpt lat="46.3956262" lon="11.0996188"><ele>847.0</ele><time>2026-03-24T15:52:27.243Z</time></trkpt><trkpt lat="46.3956893" lon="11.0996899"><ele>847.0</ele><time>2026-03-24T15:52:30.233Z</time></trkpt><trkpt lat="46.3957592" lon="11.0997859"><ele>848.3333333333333</ele><time>2026-03-24T15:52:32.227Z</time></trkpt><trkpt lat="46.3958099" lon="11.0998572"><ele>849.6666666666666</ele><time>2026-03-24T15:52:33.23Z</time></trkpt><trkpt lat="46.3958971" lon="11.0999786"><ele>851.0</ele><time>2026-03-24T15:52:35.229Z</time></trkpt><trkpt lat="46.3959425" lon="11.1000458"><ele>852.3333333333333</ele><time>2026-03-24T15:52:36.225Z</time></trkpt><trkpt lat="46.3960001" lon="11.1001494"><ele>853.6666666666666</ele><time>2026-03-24T15:52:38.244Z</time></trkpt><trkpt lat="46.3960232" lon="11.1002629"><ele>855.0</ele><time>2026-03-24T15:52:42.248Z</time></trkpt><trkpt lat="46.3960272" lon="11.1003666"><ele>855.0</ele><time>2026-03-24T15:52:46.246Z</time></trkpt><trkpt lat="46.3960867" lon="11.1004119"><ele>855.0</ele><time>2026-03-24T15:52:51.241Z</time></trkpt><trkpt lat="46.3961441" lon="11.1003195"><ele>855.0</ele><time>2026-03-24T15:52:54.238Z</time></trkpt><trkpt lat="46.3962141" lon="11.1002304"><ele>855.0</ele><time>2026-03-24T15:52:56.243Z</time></trkpt><trkpt lat="46.3962996" lon="11.1001533"><ele>855.0</ele><time>2026-03-24T15:52:58.239Z</time></trkpt><trkpt lat="46.3963705" lon="11.1000442"><ele>853.6666666666666</ele><time>2026-03-24T15:53:00.243Z</time></trkpt><trkpt lat="46.3964164" lon="11.0999423"><ele>852.3333333333333</ele><time>2026-03-24T15:53:02.248Z</time></trkpt><trkpt lat="46.3964709" lon="11.0998571"><ele>851.0</ele><time>2026-03-24T15:53:04.238Z</time></trkpt><trkpt lat="46.3965595" lon="11.0998438"><ele>849.6666666666666</ele><time>2026-03-24T15:53:07.247Z</time></trkpt><trkpt lat="46.3966072" lon="11.0999431"><ele>848.3333333333333</ele><time>2026-03-24T15:53:10.242Z</time></trkpt><trkpt lat="46.3966704" lon="11.1000126"><ele>847.0</ele><time>2026-03-24T15:53:12.247Z</time></trkpt><trkpt lat="46.3967533" lon="11.1000999"><ele>846.9999999999999</ele><time>2026-03-24T15:53:14.245Z</time></trkpt><trkpt lat="46.3968409" lon="11.100196"><ele>847.0</ele><time>2026-03-24T15:53:16.24Z</time></trkpt><trkpt lat="46.3968886" lon="11.100276"><ele>847.0</ele><time>2026-03-24T15:53:20.244Z</time></trkpt><trkpt lat="46.396953" lon="11.1003886"><ele>847.0</ele><time>2026-03-24T15:53:23.256Z</time></trkpt><trkpt lat="46.3970187" lon="11.1004215"><ele>846.9999999999999</ele><time>2026-03-24T15:53:26.246Z</time></trkpt><trkpt lat="46.397074" lon="11.1003368"><ele>847.0</ele><time>2026-03-24T15:53:28.248Z</time></trkpt><trkpt lat="46.3971496" lon="11.1001602"><ele>845.3333333333333</ele><time>2026-03-24T15:53:30.244Z</time></trkpt><trkpt lat="46.3971975" lon="11.1000702"><ele>843.6666666666666</ele><time>2026-03-24T15:53:31.245Z</time></trkpt><trkpt lat="46.3972437" lon="11.0999961"><ele>842.0</ele><time>2026-03-24T15:53:32.245Z</time></trkpt><trkpt lat="46.3973202" lon="11.09993"><ele>840.3333333333333</ele><time>2026-03-24T15:53:34.252Z</time></trkpt><trkpt lat="46.3973754" lon="11.0999961"><ele>838.6666666666666</ele><time>2026-03-24T15:53:36.25Z</time></trkpt><trkpt lat="46.3973702" lon="11.1001245"><ele>837.0</ele><time>2026-03-24T15:53:38.253Z</time></trkpt><trkpt lat="46.3973381" lon="11.1002592"><ele>837.0</ele><time>2026-03-24T15:53:40.25Z</time></trkpt><trkpt lat="46.3973305" lon="11.1003915"><ele>837.0</ele><time>2026-03-24T15:53:42.254Z</time></trkpt><trkpt lat="46.3973771" lon="11.1005141"><ele>837.0</ele><time>2026-03-24T15:53:44.239Z</time></trkpt><trkpt lat="46.3974926" lon="11.1006085"><ele>837.0</ele><time>2026-03-24T15:53:46.236Z</time></trkpt><trkpt lat="46.3975643" lon="11.1006619"><ele>837.0</ele><time>2026-03-24T15:53:47.24Z</time></trkpt><trkpt lat="46.3976319" lon="11.1006964"><ele>837.0</ele><time>2026-03-24T15:53:48.241Z</time></trkpt><trkpt lat="46.3977014" lon="11.1007314"><ele>837.0</ele><time>2026-03-24T15:53:49.238Z</time></trkpt><trkpt lat="46.3978039" lon="11.100765"><ele>837.0</ele><time>2026-03-24T15:53:51.239Z</time></trkpt><trkpt lat="46.3978875" lon="11.1007977"><ele>837.0</ele><time>2026-03-24T15:53:53.254Z</time></trkpt><trkpt lat="46.3979815" lon="11.1007917"><ele>837.0</ele><time>2026-03-24T15:53:55.247Z</time></trkpt><trkpt lat="46.3980877" lon="11.100781"><ele>839.3333333333334</ele><time>2026-03-24T15:53:57.248Z</time></trkpt><trkpt lat="46.3981978" lon="11.1008159"><ele>841.6666666666667</ele><time>2026-03-24T15:53:59.24Z</time></trkpt><trkpt lat="46.398267" lon="11.1008312"><ele>844.0</ele><time>2026-03-24T15:54:00.246Z</time></trkpt><trkpt lat="46.39838" lon="11.1008617"><ele>846.3333333333334</ele><time>2026-03-24T15:54:02.239Z</time></trkpt><trkpt lat="46.3984367" lon="11.1009048"><ele>848.6666666666667</ele><time>2026-03-24T15:54:03.244Z</time></trkpt><trkpt lat="46.3985092" lon="11.1009631"><ele>851.0</ele><time>2026-03-24T15:54:04.248Z</time></trkpt><trkpt lat="46.3985772" lon="11.1010057"><ele>851.0000000000001</ele><time>2026-03-24T15:54:05.239Z</time></trkpt><trkpt lat="46.398642" lon="11.1010377"><ele>851.0</ele><time>2026-03-24T15:54:06.235Z</time></trkpt><trkpt lat="46.3987192" lon="11.1010809"><ele>851.0</ele><time>2026-03-24T15:54:07.248Z</time></trkpt><trkpt lat="46.3988052" lon="11.1011164"><ele>851.0</ele><time>2026-03-24T15:54:08.241Z</time></trkpt><trkpt lat="46.3988953" lon="11.1011321"><ele>851.0000000000001</ele><time>2026-03-24T15:54:09.238Z</time></trkpt><trkpt lat="46.3989875" lon="11.1011611"><ele>851.0</ele><time>2026-03-24T15:54:10.248Z</time></trkpt><trkpt lat="46.3990723" lon="11.1011874"><ele>850.0000000000001</ele><time>2026-03-24T15:54:11.249Z</time></trkpt><trkpt lat="46.3991574" lon="11.1012111"><ele>849.0</ele><time>2026-03-24T15:54:12.246Z</time></trkpt><trkpt lat="46.3992346" lon="11.1012462"><ele>848.0</ele><time>2026-03-24T15:54:13.241Z</time></trkpt><trkpt lat="46.3993043" lon="11.1012894"><ele>847.0</ele><time>2026-03-24T15:54:14.244Z</time></trkpt><trkpt lat="46.399376" lon="11.1013229"><ele>846.0000000000001</ele><time>2026-03-24T15:54:15.246Z</time></trkpt><trkpt lat="46.3994433" lon="11.1013628"><ele>845.0</ele><time>2026-03-24T15:54:16.237Z</time></trkpt><trkpt lat="46.3995206" lon="11.1013987"><ele>845.0</ele><time>2026-03-24T15:54:17.247Z</time></trkpt><trkpt lat="46.3996017" lon="11.1014297"><ele>845.0</ele><time>2026-03-24T15:54:18.237Z</time></trkpt><trkpt lat="46.3997176" lon="11.1014585"><ele>845.0</ele><time>2026-03-24T15:54:20.243Z</time></trkpt><trkpt lat="46.3998206" lon="11.101518"><ele>845.0</ele><time>2026-03-24T15:54:22.247Z</time></trkpt><trkpt lat="46.3999194" lon="11.1016095"><ele>845.0</ele><time>2026-03-24T15:54:24.254Z</time></trkpt><trkpt lat="46.4000123" lon="11.1016989"><ele>845.8333333333334</ele><time>2026-03-24T15:54:26.237Z</time></trkpt><trkpt lat="46.4000885" lon="11.1017372"><ele>846.6666666666667</ele><time>2026-03-24T15:54:28.265Z</time></trkpt><trkpt lat="46.4001762" lon="11.1017785"><ele>847.5</ele><time>2026-03-24T15:54:31.251Z</time></trkpt><trkpt lat="46.4002571" lon="11.1018222"><ele>848.3333333333333</ele><time>2026-03-24T15:54:33.258Z</time></trkpt><trkpt lat="46.4003344" lon="11.1018157"><ele>849.1666666666666</ele><time>2026-03-24T15:54:35.26Z</time></trkpt><trkpt lat="46.400418" lon="11.1018177"><ele>850.0</ele><time>2026-03-24T15:54:37.261Z</time></trkpt><trkpt lat="46.4005483" lon="11.1018431"><ele>849.9999999999999</ele><time>2026-03-24T15:54:39.25Z</time></trkpt><trkpt lat="46.4006166" lon="11.1019025"><ele>850.0</ele><time>2026-03-24T15:54:40.26Z</time></trkpt><trkpt lat="46.4006734" lon="11.1019665"><ele>850.0</ele><time>2026-03-24T15:54:41.25Z</time></trkpt><trkpt lat="46.4007148" lon="11.1020386"><ele>850.0</ele><time>2026-03-24T15:54:42.254Z</time></trkpt><trkpt lat="46.4007548" lon="11.1021244"><ele>849.9999999999999</ele><time>2026-03-24T15:54:43.258Z</time></trkpt><trkpt lat="46.4008043" lon="11.1021941"><ele>850.0</ele><time>2026-03-24T15:54:44.255Z</time></trkpt><trkpt lat="46.4008928" lon="11.1022949"><ele>849.9999999999999</ele><time>2026-03-24T15:54:46.253Z</time></trkpt><trkpt lat="46.40095" lon="11.1023607"><ele>850.0</ele><time>2026-03-24T15:54:47.252Z</time></trkpt><trkpt lat="46.4009975" lon="11.1024308"><ele>850.0</ele><time>2026-03-24T15:54:48.255Z</time></trkpt><trkpt lat="46.4010585" lon="11.1025405"><ele>850.0</ele><time>2026-03-24T15:54:50.251Z</time></trkpt><trkpt lat="46.4011201" lon="11.102624"><ele>849.9999999999999</ele><time>2026-03-24T15:54:54.274Z</time></trkpt><trkpt lat="46.4011814" lon="11.1027151"><ele>850.0</ele><time>2026-03-24T15:54:56.257Z</time></trkpt><trkpt lat="46.4012645" lon="11.1028093"><ele>852.8</ele><time>2026-03-24T15:54:58.257Z</time></trkpt><trkpt lat="46.4013147" lon="11.102865"><ele>855.6</ele><time>2026-03-24T15:54:59.249Z</time></trkpt><trkpt lat="46.4014036" lon="11.1029306"><ele>858.4000000000001</ele><time>2026-03-24T15:55:01.261Z</time></trkpt><trkpt lat="46.4015183" lon="11.1029437"><ele>861.2</ele><time>2026-03-24T15:55:03.265Z</time></trkpt><trkpt lat="46.4016161" lon="11.1029632"><ele>864.0</ele><time>2026-03-24T15:55:05.254Z</time></trkpt><trkpt lat="46.4016977" lon="11.1029894"><ele>864.0</ele><time>2026-03-24T15:55:07.259Z</time></trkpt><trkpt lat="46.4017731" lon="11.1030224"><ele>864.0</ele><time>2026-03-24T15:55:09.264Z</time></trkpt><trkpt lat="46.4018484" lon="11.1029616"><ele>864.0</ele><time>2026-03-24T15:55:13.284Z</time></trkpt><trkpt lat="46.4018889" lon="11.102849"><ele>864.0</ele><time>2026-03-24T15:55:16.258Z</time></trkpt><trkpt lat="46.4019182" lon="11.1027666"><ele>864.0</ele><time>2026-03-24T15:55:18.26Z</time></trkpt><trkpt lat="46.4019371" lon="11.102664"><ele>864.0</ele><time>2026-03-24T15:55:20.264Z</time></trkpt><trkpt lat="46.4019527" lon="11.1025476"><ele>864.0</ele><time>2026-03-24T15:55:22.26Z</time></trkpt><trkpt lat="46.4019738" lon="11.1024581"><ele>864.0</ele><time>2026-03-24T15:55:23.26Z</time></trkpt><trkpt lat="46.4019724" lon="11.1022922"><ele>864.0</ele><time>2026-03-24T15:55:25.266Z</time></trkpt><trkpt lat="46.4019402" lon="11.1021428"><ele>864.0</ele><time>2026-03-24T15:55:27.27Z</time></trkpt><trkpt lat="46.4019263" lon="11.1020434"><ele>864.0</ele><time>2026-03-24T15:55:29.272Z</time></trkpt><trkpt lat="46.4019149" lon="11.1019412"><ele>864.0</ele><time>2026-03-24T15:55:31.271Z</time></trkpt><trkpt lat="46.4019013" lon="11.1018463"><ele>860.2</ele><time>2026-03-24T15:55:33.275Z</time></trkpt><trkpt lat="46.401883" lon="11.1016689"><ele>856.4000000000001</ele><time>2026-03-24T15:55:35.255Z</time></trkpt><trkpt lat="46.4018821" lon="11.1015572"><ele>852.6</ele><time>2026-03-24T15:55:36.266Z</time></trkpt><trkpt lat="46.4018807" lon="11.101431"><ele>848.8</ele><time>2026-03-24T15:55:37.263Z</time></trkpt><trkpt lat="46.4018657" lon="11.1013096"><ele>845.0</ele><time>2026-03-24T15:55:38.265Z</time></trkpt><trkpt lat="46.4018426" lon="11.1011878"><ele>843.6</ele><time>2026-03-24T15:55:39.261Z</time></trkpt><trkpt lat="46.4017984" lon="11.1010687"><ele>842.2</ele><time>2026-03-24T15:55:40.258Z</time></trkpt><trkpt lat="46.4017276" lon="11.1009516"><ele>840.8</ele><time>2026-03-24T15:55:41.265Z</time></trkpt><trkpt lat="46.4016509" lon="11.1008229"><ele>839.4</ele><time>2026-03-24T15:55:42.263Z</time></trkpt><trkpt lat="46.4015712" lon="11.1006912"><ele>838.0</ele><time>2026-03-24T15:55:43.27Z</time></trkpt><trkpt lat="46.4014752" lon="11.1005569"><ele>836.0</ele><time>2026-03-24T15:55:44.274Z</time></trkpt><trkpt lat="46.4013763" lon="11.1004349"><ele>834.0</ele><time>2026-03-24T15:55:45.262Z</time></trkpt><trkpt lat="46.4012822" lon="11.1003327"><ele>832.0</ele><time>2026-03-24T15:55:46.263Z</time></trkpt><trkpt lat="46.401199" lon="11.1002182"><ele>830.0</ele><time>2026-03-24T15:55:47.256Z</time></trkpt><trkpt lat="46.4011417" lon="11.1000984"><ele>829.8</ele><time>2026-03-24T15:55:48.263Z</time></trkpt><trkpt lat="46.4011042" lon="11.0999796"><ele>829.6</ele><time>2026-03-24T15:55:49.26Z</time></trkpt><trkpt lat="46.4010843" lon="11.0998597"><ele>829.4000000000001</ele><time>2026-03-24T15:55:50.267Z</time></trkpt><trkpt lat="46.4010754" lon="11.0997488"><ele>829.2</ele><time>2026-03-24T15:55:51.262Z</time></trkpt><trkpt lat="46.4010576" lon="11.0995782"><ele>829.0</ele><time>2026-03-24T15:55:53.252Z</time></trkpt><trkpt lat="46.4010639" lon="11.0994608"><ele>827.8000000000001</ele><time>2026-03-24T15:55:54.258Z</time></trkpt><trkpt lat="46.4010546" lon="11.0993169"><ele>826.6</ele><time>2026-03-24T15:55:55.256Z</time></trkpt><trkpt lat="46.4010641" lon="11.0991584"><ele>825.4</ele><time>2026-03-24T15:55:56.262Z</time></trkpt><trkpt lat="46.4010719" lon="11.0989921"><ele>824.2</ele><time>2026-03-24T15:55:57.273Z</time></trkpt><trkpt lat="46.4010906" lon="11.0988486"><ele>823.0</ele><time>2026-03-24T15:55:58.265Z</time></trkpt><trkpt lat="46.4011131" lon="11.0987089"><ele>822.2</ele><time>2026-03-24T15:55:59.266Z</time></trkpt><trkpt lat="46.4011449" lon="11.0985794"><ele>821.4</ele><time>2026-03-24T15:56:00.268Z</time></trkpt><trkpt lat="46.4011922" lon="11.0984562"><ele>820.6</ele><time>2026-03-24T15:56:01.262Z</time></trkpt><trkpt lat="46.4012462" lon="11.0983391"><ele>819.8000000000001</ele><time>2026-03-24T15:56:02.269Z</time></trkpt><trkpt lat="46.401299" lon="11.0982135"><ele>819.0</ele><time>2026-03-24T15:56:03.266Z</time></trkpt><trkpt lat="46.4013646" lon="11.0980988"><ele>817.8000000000001</ele><time>2026-03-24T15:56:04.271Z</time></trkpt><trkpt lat="46.4014277" lon="11.0979926"><ele>816.6</ele><time>2026-03-24T15:56:05.268Z</time></trkpt><trkpt lat="46.4014928" lon="11.0978874"><ele>815.4</ele><time>2026-03-24T15:56:06.258Z</time></trkpt><trkpt lat="46.4015635" lon="11.0977811"><ele>814.2</ele><time>2026-03-24T15:56:07.28Z</time></trkpt><trkpt lat="46.4016467" lon="11.0976667"><ele>813.0</ele><time>2026-03-24T15:56:08.276Z</time></trkpt><trkpt lat="46.4017307" lon="11.0975523"><ele>813.0</ele><time>2026-03-24T15:56:09.274Z</time></trkpt><trkpt lat="46.4018102" lon="11.0974442"><ele>813.0</ele><time>2026-03-24T15:56:10.278Z</time></trkpt><trkpt lat="46.4018935" lon="11.0973509"><ele>813.0</ele><time>2026-03-24T15:56:11.278Z</time></trkpt><trkpt lat="46.4019732" lon="11.0972639"><ele>813.0</ele><time>2026-03-24T15:56:12.274Z</time></trkpt><trkpt lat="46.4020406" lon="11.097184"><ele>813.0</ele><time>2026-03-24T15:56:13.273Z</time></trkpt><trkpt lat="46.402114" lon="11.0970799"><ele>811.8333333333334</ele><time>2026-03-24T15:56:15.271Z</time></trkpt><trkpt lat="46.4021651" lon="11.0969501"><ele>810.6666666666667</ele><time>2026-03-24T15:56:17.266Z</time></trkpt><trkpt lat="46.4021884" lon="11.0968512"><ele>809.5</ele><time>2026-03-24T15:56:18.267Z</time></trkpt><trkpt lat="46.4021831" lon="11.0967558"><ele>808.3333333333334</ele><time>2026-03-24T15:56:19.266Z</time></trkpt><trkpt lat="46.4021471" lon="11.0966412"><ele>807.1666666666667</ele><time>2026-03-24T15:56:20.277Z</time></trkpt><trkpt lat="46.4020979" lon="11.0965083"><ele>806.0</ele><time>2026-03-24T15:56:21.272Z</time></trkpt><trkpt lat="46.4020387" lon="11.0963739"><ele>803.5</ele><time>2026-03-24T15:56:22.278Z</time></trkpt><trkpt lat="46.4019711" lon="11.0962506"><ele>801.0</ele><time>2026-03-24T15:56:23.274Z</time></trkpt><trkpt lat="46.4018984" lon="11.0961293"><ele>798.5</ele><time>2026-03-24T15:56:24.285Z</time></trkpt><trkpt lat="46.40182" lon="11.0960071"><ele>796.0</ele><time>2026-03-24T15:56:25.275Z</time></trkpt><trkpt lat="46.4017299" lon="11.0958964"><ele>796.0</ele><time>2026-03-24T15:56:26.27Z</time></trkpt><trkpt lat="46.4016406" lon="11.0958052"><ele>796.0</ele><time>2026-03-24T15:56:27.272Z</time></trkpt><trkpt lat="46.4015335" lon="11.0957106"><ele>796.0</ele><time>2026-03-24T15:56:28.273Z</time></trkpt><trkpt lat="46.4014183" lon="11.0956203"><ele>796.0</ele><time>2026-03-24T15:56:29.274Z</time></trkpt><trkpt lat="46.4013012" lon="11.0955503"><ele>794.5999999999999</ele><time>2026-03-24T15:56:30.264Z</time></trkpt><trkpt lat="46.4012124" lon="11.0955034"><ele>793.2</ele><time>2026-03-24T15:56:31.273Z</time></trkpt><trkpt lat="46.401147" lon="11.0954679"><ele>791.8</ele><time>2026-03-24T15:56:32.266Z</time></trkpt><trkpt lat="46.4010623" lon="11.0954117"><ele>790.4000000000001</ele><time>2026-03-24T15:56:34.281Z</time></trkpt><trkpt lat="46.4010092" lon="11.0952407"><ele>789.0</ele><time>2026-03-24T15:56:36.265Z</time></trkpt><trkpt lat="46.401019" lon="11.0951303"><ele>789.0</ele><time>2026-03-24T15:56:37.268Z</time></trkpt><trkpt lat="46.4010666" lon="11.0950209"><ele>789.0</ele><time>2026-03-24T15:56:38.27Z</time></trkpt><trkpt lat="46.4011319" lon="11.0949268"><ele>789.0</ele><time>2026-03-24T15:56:39.265Z</time></trkpt><trkpt lat="46.4012115" lon="11.0948702"><ele>789.0</ele><time>2026-03-24T15:56:40.265Z</time></trkpt><trkpt lat="46.4013099" lon="11.094829"><ele>789.0</ele><time>2026-03-24T15:56:41.27Z</time></trkpt><trkpt lat="46.4014143" lon="11.0947624"><ele>785.75</ele><time>2026-03-24T15:56:42.267Z</time></trkpt><trkpt lat="46.4015311" lon="11.0946834"><ele>782.5</ele><time>2026-03-24T15:56:43.273Z</time></trkpt><trkpt lat="46.4016462" lon="11.0946013"><ele>779.25</ele><time>2026-03-24T15:56:44.274Z</time></trkpt><trkpt lat="46.4017669" lon="11.0945322"><ele>776.0</ele><time>2026-03-24T15:56:45.267Z</time></trkpt><trkpt lat="46.4018846" lon="11.0944749"><ele>776.0</ele><time>2026-03-24T15:56:46.271Z</time></trkpt><trkpt lat="46.4019936" lon="11.094427"><ele>776.0</ele><time>2026-03-24T15:56:47.27Z</time></trkpt><trkpt lat="46.4020898" lon="11.0943855"><ele>776.0</ele><time>2026-03-24T15:56:48.272Z</time></trkpt><trkpt lat="46.4021891" lon="11.0943393"><ele>776.0</ele><time>2026-03-24T15:56:49.272Z</time></trkpt><trkpt lat="46.402278" lon="11.09429"><ele>776.0</ele><time>2026-03-24T15:56:50.278Z</time></trkpt><trkpt lat="46.4023679" lon="11.0942467"><ele>775.3333333333334</ele><time>2026-03-24T15:56:51.278Z</time></trkpt><trkpt lat="46.4024527" lon="11.0942204"><ele>774.6666666666667</ele><time>2026-03-24T15:56:52.268Z</time></trkpt><trkpt lat="46.4025253" lon="11.0941821"><ele>774.0</ele><time>2026-03-24T15:56:53.273Z</time></trkpt><trkpt lat="46.4026001" lon="11.09416"><ele>773.3333333333333</ele><time>2026-03-24T15:56:54.284Z</time></trkpt><trkpt lat="46.4026682" lon="11.0941398"><ele>772.6666666666666</ele><time>2026-03-24T15:56:55.269Z</time></trkpt><trkpt lat="46.4027407" lon="11.0940968"><ele>772.0</ele><time>2026-03-24T15:56:56.273Z</time></trkpt><trkpt lat="46.4028004" lon="11.0940619"><ele>770.8571428571429</ele><time>2026-03-24T15:56:57.277Z</time></trkpt><trkpt lat="46.4028596" lon="11.0940169"><ele>769.7142857142858</ele><time>2026-03-24T15:56:58.281Z</time></trkpt><trkpt lat="46.4029148" lon="11.0939593"><ele>768.5714285714287</ele><time>2026-03-24T15:56:59.277Z</time></trkpt><trkpt lat="46.4029668" lon="11.0938898"><ele>767.4285714285714</ele><time>2026-03-24T15:57:00.276Z</time></trkpt><trkpt lat="46.4030145" lon="11.0938133"><ele>766.2857142857142</ele><time>2026-03-24T15:57:01.273Z</time></trkpt><trkpt lat="46.4030601" lon="11.0937415"><ele>765.1428571428572</ele><time>2026-03-24T15:57:02.272Z</time></trkpt><trkpt lat="46.4031093" lon="11.0936726"><ele>764.0</ele><time>2026-03-24T15:57:03.269Z</time></trkpt><trkpt lat="46.4031819" lon="11.0935583"><ele>763.0</ele><time>2026-03-24T15:57:05.272Z</time></trkpt><trkpt lat="46.4032427" lon="11.0934699"><ele>762.0</ele><time>2026-03-24T15:57:07.284Z</time></trkpt><trkpt lat="46.4032976" lon="11.0934106"><ele>761.0</ele><time>2026-03-24T15:57:09.27Z</time></trkpt><trkpt lat="46.4033795" lon="11.0933752"><ele>760.0</ele><time>2026-03-24T15:57:11.277Z</time></trkpt><trkpt lat="46.4034825" lon="11.0933523"><ele>759.0</ele><time>2026-03-24T15:57:13.269Z</time></trkpt><trkpt lat="46.403569" lon="11.0933649"><ele>758.0</ele><time>2026-03-24T15:57:15.286Z</time></trkpt><trkpt lat="46.4036406" lon="11.0933715"><ele>758.0</ele><time>2026-03-24T15:57:17.287Z</time></trkpt><trkpt lat="46.4037331" lon="11.0933954"><ele>758.0</ele><time>2026-03-24T15:57:20.282Z</time></trkpt><trkpt lat="46.4038446" lon="11.0934494"><ele>758.0</ele><time>2026-03-24T15:57:22.28Z</time></trkpt><trkpt lat="46.4039089" lon="11.0934943"><ele>758.0</ele><time>2026-03-24T15:57:23.281Z</time></trkpt><trkpt lat="46.4039762" lon="11.0935434"><ele>758.0</ele><time>2026-03-24T15:57:24.287Z</time></trkpt><trkpt lat="46.4040606" lon="11.0935942"><ele>756.3333333333333</ele><time>2026-03-24T15:57:25.278Z</time></trkpt><trkpt lat="46.4041422" lon="11.0936542"><ele>754.6666666666666</ele><time>2026-03-24T15:57:26.283Z</time></trkpt><trkpt lat="46.4042093" lon="11.0937094"><ele>753.0</ele><time>2026-03-24T15:57:27.276Z</time></trkpt><trkpt lat="46.4042866" lon="11.0937681"><ele>751.3333333333334</ele><time>2026-03-24T15:57:28.272Z</time></trkpt><trkpt lat="46.4043659" lon="11.0938309"><ele>749.6666666666667</ele><time>2026-03-24T15:57:29.272Z</time></trkpt><trkpt lat="46.4044391" lon="11.0938911"><ele>748.0</ele><time>2026-03-24T15:57:30.274Z</time></trkpt><trkpt lat="46.4045003" lon="11.0939373"><ele>748.0</ele><time>2026-03-24T15:57:31.273Z</time></trkpt><trkpt lat="46.4045695" lon="11.0940035"><ele>748.0</ele><time>2026-03-24T15:57:33.279Z</time></trkpt><trkpt lat="46.4046378" lon="11.0940438"><ele>748.0</ele><time>2026-03-24T15:57:36.287Z</time></trkpt><trkpt lat="46.4047088" lon="11.0940682"><ele>742.0</ele><time>2026-03-24T15:58:42.298Z</time></trkpt><trkpt lat="46.4047848" lon="11.0940786"><ele>742.0</ele><time>2026-03-24T15:58:47.286Z</time></trkpt><trkpt lat="46.4048526" lon="11.0940709"><ele>742.0</ele><time>2026-03-24T15:58:53.286Z</time></trkpt><trkpt lat="46.404901" lon="11.0940068"><ele>742.0</ele><time>2026-03-24T15:58:59.268Z</time></trkpt></trkseg></trk></gpx>